Map

Track Data

SID SEASON NUMBER BASIN SUBBASIN NAME ISO_TIME NATURE LAT LON WMO_WIND WMO_PRES WMO_AGENCY TRACK_TYPE DIST2LAND LANDFALL IFLAG USA_AGENCY USA_ATCF_ID USA_LAT USA_LON USA_RECORD USA_STATUS USA_WIND USA_PRES USA_SSHS USA_R34_NE USA_R34_SE USA_R34_SW USA_R34_NW USA_R50_NE USA_R50_SE USA_R50_SW USA_R50_NW USA_R64_NE USA_R64_SE USA_R64_SW USA_R64_NW USA_POCI USA_ROCI USA_RMW USA_EYE TOKYO_LAT TOKYO_LON TOKYO_GRADE TOKYO_WIND TOKYO_PRES TOKYO_R50_DIR TOKYO_R50_LONG TOKYO_R50_SHORT TOKYO_R30_DIR TOKYO_R30_LONG TOKYO_R30_SHORT TOKYO_LAND CMA_LAT CMA_LON CMA_CAT CMA_WIND CMA_PRES HKO_LAT HKO_LON HKO_CAT HKO_WIND HKO_PRES NEWDELHI_LAT NEWDELHI_LON NEWDELHI_GRADE NEWDELHI_WIND NEWDELHI_PRES NEWDELHI_CI NEWDELHI_DP NEWDELHI_POCI REUNION_LAT REUNION_LON REUNION_TYPE REUNION_WIND REUNION_PRES REUNION_TNUM REUNION_CI REUNION_RMW REUNION_R34_NE REUNION_R34_SE REUNION_R34_SW REUNION_R34_NW REUNION_R50_NE REUNION_R50_SE REUNION_R50_SW REUNION_R50_NW REUNION_R64_NE REUNION_R64_SE REUNION_R64_SW REUNION_R64_NW BOM_LAT BOM_LON BOM_TYPE BOM_WIND BOM_PRES BOM_TNUM BOM_CI BOM_RMW BOM_R34_NE BOM_R34_SE BOM_R34_SW BOM_R34_NW BOM_R50_NE BOM_R50_SE BOM_R50_SW BOM_R50_NW BOM_R64_NE BOM_R64_SE BOM_R64_SW BOM_R64_NW BOM_ROCI BOM_POCI BOM_EYE BOM_POS_METHOD BOM_PRES_METHOD NADI_LAT NADI_LON NADI_CAT NADI_WIND NADI_PRES WELLINGTON_LAT WELLINGTON_LON WELLINGTON_WIND WELLINGTON_PRES DS824_LAT DS824_LON DS824_STAGE DS824_WIND DS824_PRES TD9636_LAT TD9636_LON TD9636_STAGE TD9636_WIND TD9636_PRES TD9635_LAT TD9635_LON TD9635_WIND TD9635_PRES TD9635_ROCI NEUMANN_LAT NEUMANN_LON NEUMANN_CLASS NEUMANN_WIND NEUMANN_PRES MLC_LAT MLC_LON MLC_CLASS MLC_WIND MLC_PRES USA_GUST BOM_GUST BOM_GUST_PER REUNION_GUST REUNION_GUST_PER USA_SEAHGT USA_SEARAD_NE USA_SEARAD_SE USA_SEARAD_SW USA_SEARAD_NW STORM_SPEED STORM_DIR
1921355S14069 1922 71 SI MM NOT_NAMED 1921-12-21 06:00:00 NR -14.2000 69.1000 reunion main 1378 1378 _____O________ -1 -14.2000 69.1000 99 9.90000 1 222
1921355S14069 1922 71 SI MM NOT_NAMED 1921-12-21 09:00:00 NR -14.2506 69.0565 main 1373 1364 _____P________ -1 -14.2506 69.0565 99 1 219
1921355S14069 1922 71 SI MM NOT_NAMED 1921-12-21 12:00:00 NR -14.3071 69.0076 main 1364 1358 _____P________ -1 -14.3071 69.0076 99 2 220
1921355S14069 1922 71 SI MM NOT_NAMED 1921-12-21 15:00:00 NR -14.3754 68.9480 main 1349 1343 _____P________ -1 -14.3754 68.9480 99 2 220
1921355S14069 1922 71 SI MM NOT_NAMED 1921-12-21 18:00:00 NR -14.4614 68.8723 main 1343 1328 _____P________ -1 -14.4614 68.8723 99 3 220
1921355S14069 1922 71 SI MM NOT_NAMED 1921-12-21 21:00:00 NR -14.5710 68.7751 main 1328 1313 _____P________ -1 -14.5710 68.7751 99 3 220
1921355S14069 1922 71 SI MM NOT_NAMED 1921-12-22 00:00:00 NR -14.7100 68.6510 main 1313 1284 _____P________ -1 -14.7100 68.6510 99 4 221
1921355S14069 1922 71 SI MM NOT_NAMED 1921-12-22 03:00:00 NR -14.8844 68.4945 main 1284 1254 _____P________ -1 -14.8844 68.4945 99 5 221
1921355S14069 1922 71 SI MM NOT_NAMED 1921-12-22 06:00:00 NR -15.1000 68.3000 reunion main 1254 1225 _____O________ -1 -15.1000 68.3000 99 9.90000 6 221
1921355S14069 1922 71 SI MM NOT_NAMED 1921-12-22 09:00:00 NR -15.3602 68.0644 main 1219 1181 _____P________ -1 -15.3602 68.0644 99 7 221
1921355S14069 1922 71 SI MM NOT_NAMED 1921-12-22 12:00:00 NR -15.6591 67.7947 main 1175 1131 _____P________ -1 -15.6591 67.7947 99 8 221
1921355S14069 1922 71 SI MM NOT_NAMED 1921-12-22 15:00:00 NR -15.9883 67.5004 main 1131 1088 _____P________ -1 -15.9883 67.5004 99 9 220
1921355S14069 1922 71 SI MM NOT_NAMED 1921-12-22 18:00:00 NR -16.3395 67.1911 main 1088 1040 _____P________ -1 -16.3395 67.1911 99 9 220
1921355S14069 1922 71 SI MM NOT_NAMED 1921-12-22 21:00:00 NR -16.7045 66.8765 main 1040 993 _____P________ -1 -16.7045 66.8765 99 10 219
1921355S14069 1922 71 SI MM NOT_NAMED 1921-12-23 00:00:00 NR -17.0749 66.5665 main 993 951 _____P________ -1 -17.0749 66.5665 99 9 218
1921355S14069 1922 71 SI MM NOT_NAMED 1921-12-23 03:00:00 NR -17.4428 66.2710 main 951 905 _____P________ -1 -17.4428 66.2710 99 9 217
1921355S14069 1922 71 SI MM NOT_NAMED 1921-12-23 06:00:00 NR -17.8000 66.0000 reunion main 905 875 _____O________ -1 -17.8000 66.0000 99 9.90000 8 218
1921355S14069 1922 71 SI MM NOT_NAMED 1921-12-23 09:00:00 NR -18.1079 65.7360 main 865 835 _____P________ -1 -18.1079 65.7360 99 8 219
1921355S14069 1922 71 SI MM NOT_NAMED 1921-12-23 12:00:00 NR -18.4088 65.4865 main 835 806 _____P________ -1 -18.4088 65.4865 99 8 217
1921355S14069 1922 71 SI MM NOT_NAMED 1921-12-23 15:00:00 NR -18.7051 65.2589 main 806 778 _____P________ -1 -18.7051 65.2589 99 7 214
1921355S14069 1922 71 SI MM NOT_NAMED 1921-12-23 18:00:00 NR -18.9991 65.0602 main 778 751 _____P________ -1 -18.9991 65.0602 99 7 210
1921355S14069 1922 71 SI MM NOT_NAMED 1921-12-23 21:00:00 NR -19.2932 64.8976 main 751 735 _____P________ -1 -19.2932 64.8976 99 7 204
1921355S14069 1922 71 SI MM NOT_NAMED 1921-12-24 00:00:00 NR -19.5898 64.7785 main 735 721 _____P________ -1 -19.5898 64.7785 99 6 197
1921355S14069 1922 71 SI MM NOT_NAMED 1921-12-24 03:00:00 NR -19.8913 64.7102 main 721 719 _____P________ -1 -19.8913 64.7102 99 6 187
1921355S14069 1922 71 SI MM NOT_NAMED 1921-12-24 06:00:00 NR -20.2000 64.7000 reunion main 719 719 _____O________ -1 -20.2000 64.7000 99 9.90000 7 175
1921355S14069 1922 71 SI MM NOT_NAMED 1921-12-24 09:00:00 NR -20.5620 64.7775 main 729 729 _____P________ -1 -20.5620 64.7775 99 8 164
1921355S14069 1922 71 SI MM NOT_NAMED 1921-12-24 12:00:00 NR -20.9353 64.9184 main 741 741 _____P________ -1 -20.9353 64.9184 99 8 158
1921355S14069 1922 71 SI MM NOT_NAMED 1921-12-24 15:00:00 NR -21.3106 65.1089 main 766 766 _____P________ -1 -21.3106 65.1089 99 8 152
1921355S14069 1922 71 SI MM NOT_NAMED 1921-12-24 18:00:00 NR -21.6789 65.3347 main 793 793 _____P________ -1 -21.6789 65.3347 99 8 149
1921355S14069 1922 71 SI MM NOT_NAMED 1921-12-24 21:00:00 NR -22.0309 65.5814 main 830 830 _____P________ -1 -22.0309 65.5814 99 8 146
1921355S14069 1922 71 SI MM NOT_NAMED 1921-12-25 00:00:00 NR -22.3578 65.8345 main 860 860 _____P________ -1 -22.3578 65.8345 99 8 143
1921355S14069 1922 71 SI MM NOT_NAMED 1921-12-25 03:00:00 NR -22.6504 66.0790 main 899 899 _____P________ -1 -22.6504 66.0790 99 7 142
1921355S14069 1922 71 SI MM NOT_NAMED 1921-12-25 06:00:00 NR -22.9000 66.3000 reunion main 925 925 _____O________ -1 -22.9000 66.3000 99 9.90000 6 140
1921355S14069 1922 71 SI MM NOT_NAMED 1921-12-25 09:00:00 NR -23.1003 66.4857 main 951 951 _____P________ -1 -23.1003 66.4857 99 5 139
1921355S14069 1922 71 SI MM NOT_NAMED 1921-12-25 12:00:00 NR -23.2554 66.6373 main 967 967 _____P________ -1 -23.2554 66.6373 99 4 137
1921355S14069 1922 71 SI MM NOT_NAMED 1921-12-25 15:00:00 NR -23.3718 66.7596 main 990 990 _____P________ -1 -23.3718 66.7596 99 3 135
1921355S14069 1922 71 SI MM NOT_NAMED 1921-12-25 18:00:00 NR -23.4560 66.8573 main 1004 1004 _____P________ -1 -23.4560 66.8573 99 2 131
1921355S14069 1922 71 SI MM NOT_NAMED 1921-12-25 21:00:00 NR -23.5145 66.9352 main 1004 1004 _____P________ -1 -23.5145 66.9352 99 2 127
1921355S14069 1922 71 SI MM NOT_NAMED 1921-12-26 00:00:00 NR -23.5537 66.9984 main 1017 1017 _____P________ -1 -23.5537 66.9984 99 1 122
1921355S14069 1922 71 SI MM NOT_NAMED 1921-12-26 03:00:00 NR -23.5801 67.0517 main 1027 1027 _____P________ -1 -23.5801 67.0517 99 1 116
1921355S14069 1922 71 SI MM NOT_NAMED 1921-12-26 06:00:00 NR -23.6000 67.1000 reunion main 1027 _____O________ -1 -23.6000 67.1000 99 9.90000 1 120

About IBTrACS Database

This database is a web-friendly format of International Best Track Archive for Climate Stewardship (IBTrACS), a global best track data archive curated by NOAA dating back to 1842.

Updated: 2021-12-06